Manor, Georgia
Current Conditions -  °F | °C
As of 6:55 PM on Saturday 22 Nov 2014 (Local Time) from KHOE Reporting Station
Moderate Rain Moderate Rain  
Wind Chill: 61°   Ceiling: 7000
Heat Index: 61°   Visibility: 10mi
Dew Point: 59°   Wind: 9mph
Humidity: 94%   Direction: 90°E
Pressure: 30.22"   Gusts: NA
Location:  31.1°N, 82.57°W
Report Text: KHOE 222355Z AUTO 09008KT 10SM RA OVC070 16/15 A3022 RMK AO2
Loading
Personal Weather Stations






























Interactive Weather Map New forecast layout! Learn more

10-Day Weather Forecast

Advertisements
Track Severe Weather on mobile